Crocus, North Dakota
Current Conditions -  °F | °C
As of 10:35 AM on Monday 24 Nov 2014 (Local Time) from K06D Reporting Station
Clear Clear  
Wind Chill: -13°   Ceiling: Unl
Heat Index:   Visibility: 10mi
Dew Point: -2°   Wind: 21mph
Humidity: 67%   Direction: 340°NNW
Pressure: 29.86"   Gusts: 24mph
Location:  48.8584°N, 99.1311°W
Report Text: K06D 241635Z AUTO 34018G21KT 10SM CLR M14/M19 A2986 RMK AO2
Loading
Personal Weather Stations






























Interactive Weather Map New forecast layout! Learn more

10-Day Weather Forecast

Advertisements
Track Severe Weather on mobile